sensor_id;sensor_type;location;lat;lon;timestamp;P1;durP1;ratioP1;P2;durP2;ratioP2
77522;SDS011;66637;-29.628;-49.938;2023-02-25T00:02:22;14.07;;;6.07;;
77522;SDS011;66637;-29.628;-49.938;2023-02-25T00:04:54;13.32;;;3.38;;
77522;SDS011;66637;-29.628;-49.938;2023-02-25T00:07:27;8.75;;;3.53;;
77522;SDS011;66637;-29.628;-49.938;2023-02-25T00:10:01;12.10;;;2.95;;
77522;SDS011;66637;-29.628;-49.938;2023-02-25T00:12:32;9.25;;;2.00;;
77522;SDS011;66637;-29.628;-49.938;2023-02-25T00:15:04;7.97;;;2.20;;
77522;SDS011;66637;-29.628;-49.938;2023-02-25T00:17:36;9.25;;;3.75;;
77522;SDS011;66637;-29.628;-49.938;2023-02-25T00:20:09;13.93;;;4.93;;
77522;SDS011;66637;-29.628;-49.938;2023-02-25T00:22:42;10.02;;;3.47;;
77522;SDS011;66637;-29.628;-49.938;2023-02-25T00:25:13;10.05;;;3.10;;
77522;SDS011;66637;-29.628;-49.938;2023-02-25T00:27:47;13.98;;;3.42;;
77522;SDS011;66637;-29.628;-49.938;2023-02-25T00:30:19;14.48;;;5.35;;
77522;SDS011;66637;-29.628;-49.938;2023-02-25T00:32:49;15.50;;;7.22;;
77522;SDS011;66637;-29.628;-49.938;2023-02-25T00:35:20;13.90;;;5.57;;
77522;SDS011;66637;-29.628;-49.938;2023-02-25T00:37:52;10.63;;;4.72;;
77522;SDS011;66637;-29.628;-49.938;2023-02-25T00:40:37;19.52;;;9.50;;
77522;SDS011;66637;-29.628;-49.938;2023-02-25T00:43:09;18.17;;;7.20;;
77522;SDS011;66637;-29.628;-49.938;2023-02-25T00:45:39;13.73;;;5.90;;
77522;SDS011;66637;-29.628;-49.938;2023-02-25T00:48:12;14.45;;;5.40;;
77522;SDS011;66637;-29.628;-49.938;2023-02-25T00:50:43;14.30;;;5.10;;
77522;SDS011;66637;-29.628;-49.938;2023-02-25T00:53:14;24.20;;;5.57;;
77522;SDS011;66637;-29.628;-49.938;2023-02-25T00:55:45;22.73;;;8.00;;
77522;SDS011;66637;-29.628;-49.938;2023-02-25T00:58:16;30.17;;;9.57;;
77522;SDS011;66637;-29.628;-49.938;2023-02-25T01:00:46;40.35;;;9.68;;
77522;SDS011;66637;-29.628;-49.938;2023-02-25T01:03:19;33.75;;;10.00;;
77522;SDS011;66637;-29.628;-49.938;2023-02-25T01:05:50;38.97;;;12.00;;
77522;SDS011;66637;-29.628;-49.938;2023-02-25T01:08:20;21.80;;;6.53;;
77522;SDS011;66637;-29.628;-49.938;2023-02-25T01:10:50;15.82;;;4.55;;
77522;SDS011;66637;-29.628;-49.938;2023-02-25T01:13:21;11.38;;;4.10;;
77522;SDS011;66637;-29.628;-49.938;2023-02-25T01:15:52;14.35;;;3.92;;
77522;SDS011;66637;-29.628;-49.938;2023-02-25T01:18:22;12.18;;;3.75;;
77522;SDS011;66637;-29.628;-49.938;2023-02-25T01:20:53;13.32;;;3.88;;
77522;SDS011;66637;-29.628;-49.938;2023-02-25T01:23:23;12.05;;;4.60;;
77522;SDS011;66637;-29.628;-49.938;2023-02-25T01:25:54;12.98;;;4.53;;
77522;SDS011;66637;-29.628;-49.938;2023-02-25T01:28:26;10.50;;;3.38;;
77522;SDS011;66637;-29.628;-49.938;2023-02-25T01:30:57;6.70;;;2.95;;
77522;SDS011;66637;-29.628;-49.938;2023-02-25T01:33:27;5.60;;;2.50;;
77522;SDS011;66637;-29.628;-49.938;2023-02-25T01:36:01;6.88;;;2.67;;
77522;SDS011;66637;-29.628;-49.938;2023-02-25T01:38:34;9.63;;;2.60;;
77522;SDS011;66637;-29.628;-49.938;2023-02-25T01:41:07;8.50;;;2.55;;
77522;SDS011;66637;-29.628;-49.938;2023-02-25T01:43:39;5.00;;;2.50;;
77522;SDS011;66637;-29.628;-49.938;2023-02-25T01:46:11;6.47;;;2.67;;
77522;SDS011;66637;-29.628;-49.938;2023-02-25T01:48:40;8.88;;;2.63;;
77522;SDS011;66637;-29.628;-49.938;2023-02-25T01:51:12;5.25;;;2.00;;
77522;SDS011;66637;-29.628;-49.938;2023-02-25T01:53:44;5.22;;;2.00;;
77522;SDS011;66637;-29.628;-49.938;2023-02-25T01:56:17;8.15;;;2.38;;
77522;SDS011;66637;-29.628;-49.938;2023-02-25T01:58:52;5.47;;;2.40;;
77522;SDS011;66637;-29.628;-49.938;2023-02-25T02:01:23;5.07;;;2.00;;
77522;SDS011;66637;-29.628;-49.938;2023-02-25T02:03:57;5.03;;;1.85;;
77522;SDS011;66637;-29.628;-49.938;2023-02-25T02:06:33;5.65;;;1.95;;
77522;SDS011;66637;-29.628;-49.938;2023-02-25T02:09:09;6.22;;;1.90;;
77522;SDS011;66637;-29.628;-49.938;2023-02-25T02:11:43;6.55;;;1.75;;
77522;SDS011;66637;-29.628;-49.938;2023-02-25T02:14:13;7.53;;;1.88;;
77522;SDS011;66637;-29.628;-49.938;2023-02-25T02:25:48;4.30;;;1.58;;
77522;SDS011;66637;-29.628;-49.938;2023-02-25T02:34:29;6.22;;;1.98;;
77522;SDS011;66637;-29.628;-49.938;2023-02-25T02:37:25;6.60;;;2.22;;
77522;SDS011;66637;-29.628;-49.938;2023-02-25T02:42:59;6.00;;;2.00;;
77522;SDS011;66637;-29.628;-49.938;2023-02-25T02:45:46;6.20;;;1.90;;
77522;SDS011;66637;-29.628;-49.938;2023-02-25T02:51:11;2.75;;;1.80;;
77522;SDS011;66637;-29.628;-49.938;2023-02-25T02:53:52;5.45;;;1.60;;
77522;SDS011;66637;-29.628;-49.938;2023-02-25T02:56:27;7.00;;;1.55;;
77522;SDS011;66637;-29.628;-49.938;2023-02-25T02:59:11;6.50;;;1.70;;
77522;SDS011;66637;-29.628;-49.938;2023-02-25T03:01:51;5.47;;;1.95;;
77522;SDS011;66637;-29.628;-49.938;2023-02-25T03:04:36;4.57;;;1.67;;
77522;SDS011;66637;-29.628;-49.938;2023-02-25T03:07:09;4.90;;;1.85;;
77522;SDS011;66637;-29.628;-49.938;2023-02-25T03:09:59;7.63;;;1.90;;
77522;SDS011;66637;-29.628;-49.938;2023-02-25T03:12:33;6.13;;;1.70;;
77522;SDS011;66637;-29.628;-49.938;2023-02-25T03:15:09;6.30;;;1.67;;
77522;SDS011;66637;-29.628;-49.938;2023-02-25T03:17:45;6.10;;;1.50;;
77522;SDS011;66637;-29.628;-49.938;2023-02-25T03:20:28;5.57;;;2.15;;
77522;SDS011;66637;-29.628;-49.938;2023-02-25T03:23:17;4.15;;;2.13;;
77522;SDS011;66637;-29.628;-49.938;2023-02-25T03:26:01;4.43;;;1.88;;
77522;SDS011;66637;-29.628;-49.938;2023-02-25T03:28:42;4.88;;;1.58;;
77522;SDS011;66637;-29.628;-49.938;2023-02-25T03:34:30;3.55;;;1.90;;
77522;SDS011;66637;-29.628;-49.938;2023-02-25T03:37:13;7.30;;;2.13;;
77522;SDS011;66637;-29.628;-49.938;2023-02-25T03:39:50;4.80;;;1.88;;
77522;SDS011;66637;-29.628;-49.938;2023-02-25T03:42:27;4.13;;;1.90;;
77522;SDS011;66637;-29.628;-49.938;2023-02-25T03:45:04;7.63;;;2.10;;
77522;SDS011;66637;-29.628;-49.938;2023-02-25T03:47:38;8.70;;;2.20;;
77522;SDS011;66637;-29.628;-49.938;2023-02-25T03:50:21;4.55;;;2.03;;
77522;SDS011;66637;-29.628;-49.938;2023-02-25T03:53:00;4.63;;;2.00;;
77522;SDS011;66637;-29.628;-49.938;2023-02-25T03:55:51;6.03;;;1.83;;
77522;SDS011;66637;-29.628;-49.938;2023-02-25T03:58:22;7.18;;;1.90;;
77522;SDS011;66637;-29.628;-49.938;2023-02-25T04:00:55;5.22;;;1.90;;
77522;SDS011;66637;-29.628;-49.938;2023-02-25T04:03:33;3.75;;;1.63;;
77522;SDS011;66637;-29.628;-49.938;2023-02-25T04:06:05;4.35;;;1.80;;
77522;SDS011;66637;-29.628;-49.938;2023-02-25T04:08:35;4.65;;;2.10;;
77522;SDS011;66637;-29.628;-49.938;2023-02-25T04:11:07;3.63;;;1.90;;
77522;SDS011;66637;-29.628;-49.938;2023-02-25T04:13:38;4.65;;;1.75;;
77522;SDS011;66637;-29.628;-49.938;2023-02-25T04:16:09;4.38;;;2.25;;
77522;SDS011;66637;-29.628;-49.938;2023-02-25T04:18:40;8.70;;;2.13;;
77522;SDS011;66637;-29.628;-49.938;2023-02-25T04:21:29;4.45;;;1.70;;
77522;SDS011;66637;-29.628;-49.938;2023-02-25T04:24:02;3.40;;;1.70;;
77522;SDS011;66637;-29.628;-49.938;2023-02-25T04:26:35;5.38;;;2.00;;
77522;SDS011;66637;-29.628;-49.938;2023-02-25T04:29:06;5.55;;;1.50;;
77522;SDS011;66637;-29.628;-49.938;2023-02-25T04:31:37;6.65;;;2.05;;
77522;SDS011;66637;-29.628;-49.938;2023-02-25T04:34:08;5.63;;;1.77;;
77522;SDS011;66637;-29.628;-49.938;2023-02-25T04:36:39;10.30;;;1.92;;
77522;SDS011;66637;-29.628;-49.938;2023-02-25T04:39:13;6.65;;;1.60;;
77522;SDS011;66637;-29.628;-49.938;2023-02-25T04:41:44;4.18;;;1.88;;
77522;SDS011;66637;-29.628;-49.938;2023-02-25T04:48:14;5.88;;;1.95;;
77522;SDS011;66637;-29.628;-49.938;2023-02-25T04:50:53;4.97;;;1.73;;
77522;SDS011;66637;-29.628;-49.938;2023-02-25T04:53:24;6.50;;;1.58;;
77522;SDS011;66637;-29.628;-49.938;2023-02-25T04:55:55;7.95;;;1.55;;
77522;SDS011;66637;-29.628;-49.938;2023-02-25T04:58:25;4.97;;;1.33;;
77522;SDS011;66637;-29.628;-49.938;2023-02-25T05:01:00;5.82;;;1.40;;
77522;SDS011;66637;-29.628;-49.938;2023-02-25T05:03:33;8.13;;;1.35;;
77522;SDS011;66637;-29.628;-49.938;2023-02-25T05:06:05;3.15;;;1.38;;
77522;SDS011;66637;-29.628;-49.938;2023-02-25T05:08:35;3.17;;;1.33;;
77522;SDS011;66637;-29.628;-49.938;2023-02-25T05:11:07;2.40;;;1.17;;
77522;SDS011;66637;-29.628;-49.938;2023-02-25T05:13:38;6.47;;;1.35;;
77522;SDS011;66637;-29.628;-49.938;2023-02-25T05:16:10;5.45;;;1.20;;
77522;SDS011;66637;-29.628;-49.938;2023-02-25T05:18:45;2.35;;;1.20;;
77522;SDS011;66637;-29.628;-49.938;2023-02-25T05:21:18;2.75;;;1.10;;
77522;SDS011;66637;-29.628;-49.938;2023-02-25T05:23:51;4.03;;;1.23;;
77522;SDS011;66637;-29.628;-49.938;2023-02-25T05:26:23;3.83;;;1.30;;
77522;SDS011;66637;-29.628;-49.938;2023-02-25T05:28:55;5.82;;;1.20;;
77522;SDS011;66637;-29.628;-49.938;2023-02-25T05:31:27;7.13;;;1.17;;
77522;SDS011;66637;-29.628;-49.938;2023-02-25T05:33:58;4.28;;;1.08;;
77522;SDS011;66637;-29.628;-49.938;2023-02-25T05:36:29;7.05;;;1.23;;
77522;SDS011;66637;-29.628;-49.938;2023-02-25T05:39:01;5.20;;;1.67;;
77522;SDS011;66637;-29.628;-49.938;2023-02-25T05:41:32;6.78;;;1.08;;
77522;SDS011;66637;-29.628;-49.938;2023-02-25T05:44:02;5.50;;;1.05;;
77522;SDS011;66637;-29.628;-49.938;2023-02-25T05:46:33;5.60;;;1.40;;
77522;SDS011;66637;-29.628;-49.938;2023-02-25T05:49:05;3.85;;;1.30;;
77522;SDS011;66637;-29.628;-49.938;2023-02-25T05:51:36;6.78;;;1.30;;
77522;SDS011;66637;-29.628;-49.938;2023-02-25T05:54:06;5.88;;;1.10;;
77522;SDS011;66637;-29.628;-49.938;2023-02-25T05:56:38;6.18;;;1.80;;
77522;SDS011;66637;-29.628;-49.938;2023-02-25T05:59:11;3.33;;;1.15;;
77522;SDS011;66637;-29.628;-49.938;2023-02-25T06:01:43;3.78;;;1.30;;
77522;SDS011;66637;-29.628;-49.938;2023-02-25T06:04:13;6.38;;;1.45;;
77522;SDS011;66637;-29.628;-49.938;2023-02-25T06:06:45;3.45;;;1.10;;
77522;SDS011;66637;-29.628;-49.938;2023-02-25T06:09:19;4.95;;;1.13;;
77522;SDS011;66637;-29.628;-49.938;2023-02-25T06:11:50;5.07;;;1.20;;
77522;SDS011;66637;-29.628;-49.938;2023-02-25T06:14:21;4.05;;;1.30;;
77522;SDS011;66637;-29.628;-49.938;2023-02-25T06:16:53;5.20;;;1.50;;
77522;SDS011;66637;-29.628;-49.938;2023-02-25T06:19:25;6.65;;;1.38;;
77522;SDS011;66637;-29.628;-49.938;2023-02-25T06:21:57;4.05;;;1.35;;
77522;SDS011;66637;-29.628;-49.938;2023-02-25T06:24:28;2.72;;;1.02;;
77522;SDS011;66637;-29.628;-49.938;2023-02-25T06:26:58;4.28;;;1.10;;
77522;SDS011;66637;-29.628;-49.938;2023-02-25T06:29:28;6.07;;;1.38;;
77522;SDS011;66637;-29.628;-49.938;2023-02-25T06:31:59;2.65;;;1.10;;
77522;SDS011;66637;-29.628;-49.938;2023-02-25T06:34:33;3.90;;;1.20;;
77522;SDS011;66637;-29.628;-49.938;2023-02-25T06:37:05;4.35;;;1.20;;
77522;SDS011;66637;-29.628;-49.938;2023-02-25T06:39:35;4.70;;;1.08;;
77522;SDS011;66637;-29.628;-49.938;2023-02-25T06:42:05;2.15;;;1.20;;
77522;SDS011;66637;-29.628;-49.938;2023-02-25T06:44:37;2.08;;;1.00;;
77522;SDS011;66637;-29.628;-49.938;2023-02-25T06:47:08;2.95;;;1.40;;
77522;SDS011;66637;-29.628;-49.938;2023-02-25T06:49:39;2.55;;;0.90;;
77522;SDS011;66637;-29.628;-49.938;2023-02-25T06:52:09;3.63;;;1.10;;
77522;SDS011;66637;-29.628;-49.938;2023-02-25T06:54:39;2.85;;;1.00;;
77522;SDS011;66637;-29.628;-49.938;2023-02-25T06:57:10;1.30;;;1.00;;
77522;SDS011;66637;-29.628;-49.938;2023-02-25T06:59:40;7.85;;;1.63;;
77522;SDS011;66637;-29.628;-49.938;2023-02-25T07:02:12;2.58;;;1.10;;
77522;SDS011;66637;-29.628;-49.938;2023-02-25T07:04:43;7.55;;;1.15;;
77522;SDS011;66637;-29.628;-49.938;2023-02-25T07:07:13;4.78;;;1.30;;
77522;SDS011;66637;-29.628;-49.938;2023-02-25T07:09:47;1.40;;;0.90;;
77522;SDS011;66637;-29.628;-49.938;2023-02-25T07:12:19;2.75;;;0.82;;
77522;SDS011;66637;-29.628;-49.938;2023-02-25T07:14:49;1.52;;;1.10;;
77522;SDS011;66637;-29.628;-49.938;2023-02-25T07:17:20;2.10;;;0.73;;
77522;SDS011;66637;-29.628;-49.938;2023-02-25T07:19:51;3.35;;;0.90;;
77522;SDS011;66637;-29.628;-49.938;2023-02-25T07:22:21;1.95;;;1.00;;
77522;SDS011;66637;-29.628;-49.938;2023-02-25T07:24:53;3.50;;;0.82;;
77522;SDS011;66637;-29.628;-49.938;2023-02-25T07:27:24;3.85;;;1.05;;
77522;SDS011;66637;-29.628;-49.938;2023-02-25T07:29:56;3.33;;;1.08;;
77522;SDS011;66637;-29.628;-49.938;2023-02-25T07:32:29;3.08;;;0.88;;
77522;SDS011;66637;-29.628;-49.938;2023-02-25T07:35:00;1.65;;;0.65;;
77522;SDS011;66637;-29.628;-49.938;2023-02-25T07:37:32;2.42;;;0.85;;
77522;SDS011;66637;-29.628;-49.938;2023-02-25T07:40:07;3.22;;;0.88;;
77522;SDS011;66637;-29.628;-49.938;2023-02-25T07:42:42;2.67;;;0.90;;
77522;SDS011;66637;-29.628;-49.938;2023-02-25T07:45:12;2.97;;;0.90;;
77522;SDS011;66637;-29.628;-49.938;2023-02-25T07:47:44;2.17;;;0.70;;
77522;SDS011;66637;-29.628;-49.938;2023-02-25T07:50:15;3.53;;;0.90;;
77522;SDS011;66637;-29.628;-49.938;2023-02-25T07:52:45;7.30;;;1.50;;
77522;SDS011;66637;-29.628;-49.938;2023-02-25T07:55:15;6.63;;;1.42;;
77522;SDS011;66637;-29.628;-49.938;2023-02-25T07:57:46;7.75;;;1.50;;
77522;SDS011;66637;-29.628;-49.938;2023-02-25T08:00:17;13.73;;;1.90;;
77522;SDS011;66637;-29.628;-49.938;2023-02-25T08:02:48;19.48;;;2.95;;
77522;SDS011;66637;-29.628;-49.938;2023-02-25T08:05:18;14.55;;;2.55;;
77522;SDS011;66637;-29.628;-49.938;2023-02-25T08:07:50;21.27;;;3.55;;
77522;SDS011;66637;-29.628;-49.938;2023-02-25T08:10:21;23.38;;;3.60;;
77522;SDS011;66637;-29.628;-49.938;2023-02-25T08:12:51;19.58;;;3.75;;
77522;SDS011;66637;-29.628;-49.938;2023-02-25T08:15:22;15.65;;;2.85;;
77522;SDS011;66637;-29.628;-49.938;2023-02-25T08:17:53;13.15;;;2.10;;
77522;SDS011;66637;-29.628;-49.938;2023-02-25T08:20:25;14.55;;;2.60;;
77522;SDS011;66637;-29.628;-49.938;2023-02-25T08:22:55;16.25;;;2.45;;
77522;SDS011;66637;-29.628;-49.938;2023-02-25T08:25:27;20.77;;;3.85;;
77522;SDS011;66637;-29.628;-49.938;2023-02-25T08:27:59;20.10;;;3.33;;
77522;SDS011;66637;-29.628;-49.938;2023-02-25T08:30:30;19.10;;;4.18;;
77522;SDS011;66637;-29.628;-49.938;2023-02-25T08:33:00;19.63;;;3.70;;
77522;SDS011;66637;-29.628;-49.938;2023-02-25T08:35:32;20.73;;;3.60;;
77522;SDS011;66637;-29.628;-49.938;2023-02-25T08:38:03;41.00;;;5.10;;
77522;SDS011;66637;-29.628;-49.938;2023-02-25T08:40:33;34.95;;;5.28;;
77522;SDS011;66637;-29.628;-49.938;2023-02-25T08:43:04;46.88;;;5.30;;
77522;SDS011;66637;-29.628;-49.938;2023-02-25T08:45:36;36.88;;;5.55;;
77522;SDS011;66637;-29.628;-49.938;2023-02-25T08:48:08;42.78;;;6.03;;
77522;SDS011;66637;-29.628;-49.938;2023-02-25T08:50:39;57.25;;;6.82;;
77522;SDS011;66637;-29.628;-49.938;2023-02-25T08:53:13;35.63;;;4.97;;
77522;SDS011;66637;-29.628;-49.938;2023-02-25T08:55:44;41.47;;;5.55;;
77522;SDS011;66637;-29.628;-49.938;2023-02-25T08:58:15;122.30;;;15.60;;
77522;SDS011;66637;-29.628;-49.938;2023-02-25T09:00:46;81.38;;;9.68;;
77522;SDS011;66637;-29.628;-49.938;2023-02-25T09:03:18;93.68;;;11.27;;
77522;SDS011;66637;-29.628;-49.938;2023-02-25T09:05:50;65.32;;;9.52;;
77522;SDS011;66637;-29.628;-49.938;2023-02-25T09:08:22;48.40;;;6.93;;
77522;SDS011;66637;-29.628;-49.938;2023-02-25T09:10:52;53.45;;;8.05;;
77522;SDS011;66637;-29.628;-49.938;2023-02-25T09:13:24;52.15;;;8.13;;
77522;SDS011;66637;-29.628;-49.938;2023-02-25T09:15:56;32.65;;;5.38;;
77522;SDS011;66637;-29.628;-49.938;2023-02-25T09:18:28;16.00;;;2.35;;
77522;SDS011;66637;-29.628;-49.938;2023-02-25T09:20:59;5.93;;;1.25;;
77522;SDS011;66637;-29.628;-49.938;2023-02-25T09:23:30;8.52;;;1.45;;
77522;SDS011;66637;-29.628;-49.938;2023-02-25T09:26:01;3.78;;;0.90;;
77522;SDS011;66637;-29.628;-49.938;2023-02-25T09:28:34;2.05;;;0.45;;
77522;SDS011;66637;-29.628;-49.938;2023-02-25T09:31:05;1.48;;;0.43;;
77522;SDS011;66637;-29.628;-49.938;2023-02-25T09:33:36;0.95;;;0.38;;
77522;SDS011;66637;-29.628;-49.938;2023-02-25T09:36:13;1.13;;;0.52;;
77522;SDS011;66637;-29.628;-49.938;2023-02-25T09:38:47;2.92;;;0.50;;
77522;SDS011;66637;-29.628;-49.938;2023-02-25T09:44:17;0.47;;;0.30;;
77522;SDS011;66637;-29.628;-49.938;2023-02-25T09:47:02;2.17;;;0.30;;
77522;SDS011;66637;-29.628;-49.938;2023-02-25T09:49:37;0.35;;;0.30;;
77522;SDS011;66637;-29.628;-49.938;2023-02-25T09:52:43;0.32;;;0.22;;
77522;SDS011;66637;-29.628;-49.938;2023-02-25T09:58:07;2.25;;;0.40;;
77522;SDS011;66637;-29.628;-49.938;2023-02-25T10:01:04;0.93;;;0.50;;
77522;SDS011;66637;-29.628;-49.938;2023-02-25T10:03:55;3.25;;;0.30;;
77522;SDS011;66637;-29.628;-49.938;2023-02-25T10:06:36;0.68;;;0.25;;
77522;SDS011;66637;-29.628;-49.938;2023-02-25T10:18:25;0.50;;;0.30;;
77522;SDS011;66637;-29.628;-49.938;2023-02-25T10:21:29;1.27;;;0.50;;
77522;SDS011;66637;-29.628;-49.938;2023-02-25T10:24:27;1.30;;;0.30;;
77522;SDS011;66637;-29.628;-49.938;2023-02-25T10:27:06;0.32;;;0.20;;
77522;SDS011;66637;-29.628;-49.938;2023-02-25T10:30:04;0.77;;;0.40;;
77522;SDS011;66637;-29.628;-49.938;2023-02-25T10:32:43;1.60;;;0.20;;
77522;SDS011;66637;-29.628;-49.938;2023-02-25T10:35:26;2.20;;;0.20;;
77522;SDS011;66637;-29.628;-49.938;2023-02-25T10:38:01;2.70;;;0.38;;
77522;SDS011;66637;-29.628;-49.938;2023-02-25T10:40:31;3.05;;;0.35;;
77522;SDS011;66637;-29.628;-49.938;2023-02-25T10:43:09;1.35;;;0.30;;
77522;SDS011;66637;-29.628;-49.938;2023-02-25T10:45:55;1.90;;;0.30;;
77522;SDS011;66637;-29.628;-49.938;2023-02-25T10:48:32;3.28;;;0.47;;
77522;SDS011;66637;-29.628;-49.938;2023-02-25T10:51:06;0.55;;;0.20;;
77522;SDS011;66637;-29.628;-49.938;2023-02-25T10:53:59;0.88;;;0.30;;
77522;SDS011;66637;-29.628;-49.938;2023-02-25T10:56:38;2.47;;;0.40;;
77522;SDS011;66637;-29.628;-49.938;2023-02-25T11:04:59;1.40;;;0.20;;
77522;SDS011;66637;-29.628;-49.938;2023-02-25T11:10:15;2.45;;;0.60;;
77522;SDS011;66637;-29.628;-49.938;2023-02-25T11:12:51;0.85;;;0.20;;
77522;SDS011;66637;-29.628;-49.938;2023-02-25T11:15:37;0.47;;;0.20;;
77522;SDS011;66637;-29.628;-49.938;2023-02-25T11:18:25;0.28;;;0.20;;
77522;SDS011;66637;-29.628;-49.938;2023-02-25T11:20:59;0.20;;;0.20;;
77522;SDS011;66637;-29.628;-49.938;2023-02-25T11:26:39;3.78;;;0.30;;
77522;SDS011;66637;-29.628;-49.938;2023-02-25T11:29:13;1.73;;;0.20;;
77522;SDS011;66637;-29.628;-49.938;2023-02-25T11:32:05;0.88;;;0.20;;
77522;SDS011;66637;-29.628;-49.938;2023-02-25T11:40:23;0.38;;;0.15;;
77522;SDS011;66637;-29.628;-49.938;2023-02-25T11:43:12;0.75;;;0.20;;
77522;SDS011;66637;-29.628;-49.938;2023-02-25T11:48:38;0.30;;;0.20;;
77522;SDS011;66637;-29.628;-49.938;2023-02-25T11:54:03;0.93;;;0.15;;
77522;SDS011;66637;-29.628;-49.938;2023-02-25T11:56:49;1.17;;;0.20;;
77522;SDS011;66637;-29.628;-49.938;2023-02-25T11:59:44;0.30;;;0.17;;
77522;SDS011;66637;-29.628;-49.938;2023-02-25T12:02:56;0.20;;;0.20;;
77522;SDS011;66637;-29.628;-49.938;2023-02-25T12:05:58;0.20;;;0.17;;
77522;SDS011;66637;-29.628;-49.938;2023-02-25T12:11:58;2.67;;;0.20;;
77522;SDS011;66637;-29.628;-49.938;2023-02-25T12:15:06;0.22;;;0.20;;
77522;SDS011;66637;-29.628;-49.938;2023-02-25T12:23:38;0.30;;;0.13;;
77522;SDS011;66637;-29.628;-49.938;2023-02-25T12:26:33;0.60;;;0.20;;
77522;SDS011;66637;-29.628;-49.938;2023-02-25T12:32:40;1.65;;;0.20;;
77522;SDS011;66637;-29.628;-49.938;2023-02-25T12:38:37;0.55;;;0.10;;
77522;SDS011;66637;-29.628;-49.938;2023-02-25T12:41:32;0.95;;;0.20;;
77522;SDS011;66637;-29.628;-49.938;2023-02-25T12:50:22;71.05;;;10.20;;
77522;SDS011;66637;-29.628;-49.938;2023-02-25T13:02:17;30.25;;;5.03;;
77522;SDS011;66637;-29.628;-49.938;2023-02-25T13:10:51;23.05;;;4.30;;
77522;SDS011;66637;-29.628;-49.938;2023-02-25T13:16:19;47.28;;;6.13;;
77522;SDS011;66637;-29.628;-49.938;2023-02-25T13:25:11;63.75;;;7.93;;
77522;SDS011;66637;-29.628;-49.938;2023-02-25T13:31:04;45.17;;;4.53;;
77522;SDS011;66637;-29.628;-49.938;2023-02-25T13:42:20;49.20;;;7.03;;
77522;SDS011;66637;-29.628;-49.938;2023-02-25T13:45:25;46.83;;;7.18;;
77522;SDS011;66637;-29.628;-49.938;2023-02-25T13:54:04;51.67;;;7.32;;
77522;SDS011;66637;-29.628;-49.938;2023-02-25T13:59:15;52.00;;;8.85;;
77522;SDS011;66637;-29.628;-49.938;2023-02-25T14:08:15;74.40;;;8.77;;
77522;SDS011;66637;-29.628;-49.938;2023-02-25T14:17:08;29.05;;;5.03;;
77522;SDS011;66637;-29.628;-49.938;2023-02-25T14:37:07;1.23;;;0.90;;
77522;SDS011;66637;-29.628;-49.938;2023-02-25T14:49:01;2.97;;;0.93;;
77522;SDS011;66637;-29.628;-49.938;2023-02-25T14:54:30;1.73;;;1.30;;
77522;SDS011;66637;-29.628;-49.938;2023-02-25T15:05:30;4.07;;;1.60;;
77522;SDS011;66637;-29.628;-49.938;2023-02-25T15:16:34;2.55;;;1.40;;
77522;SDS011;66637;-29.628;-49.938;2023-02-25T15:23:06;2.47;;;1.20;;
77522;SDS011;66637;-29.628;-49.938;2023-02-25T15:25:45;1.80;;;1.20;;
77522;SDS011;66637;-29.628;-49.938;2023-02-25T15:31:03;2.70;;;1.25;;
77522;SDS011;66637;-29.628;-49.938;2023-02-25T15:36:51;1.75;;;1.23;;
77522;SDS011;66637;-29.628;-49.938;2023-02-25T15:39:55;1.48;;;0.90;;
77522;SDS011;66637;-29.628;-49.938;2023-02-25T15:42:52;4.18;;;3.40;;
77522;SDS011;66637;-29.628;-49.938;2023-02-25T15:50:53;2.70;;;1.30;;
77522;SDS011;66637;-29.628;-49.938;2023-02-25T15:58:42;2.55;;;1.70;;
77522;SDS011;66637;-29.628;-49.938;2023-02-25T16:01:25;4.38;;;2.55;;
77522;SDS011;66637;-29.628;-49.938;2023-02-25T16:03:56;4.03;;;2.78;;
77522;SDS011;66637;-29.628;-49.938;2023-02-25T16:06:31;5.93;;;3.05;;
77522;SDS011;66637;-29.628;-49.938;2023-02-25T16:09:16;4.88;;;3.40;;
77522;SDS011;66637;-29.628;-49.938;2023-02-25T16:11:53;5.03;;;3.00;;
77522;SDS011;66637;-29.628;-49.938;2023-02-25T16:14:27;2.28;;;1.23;;
77522;SDS011;66637;-29.628;-49.938;2023-02-25T16:20:01;1.30;;;1.13;;
77522;SDS011;66637;-29.628;-49.938;2023-02-25T16:22:45;1.13;;;1.00;;
77522;SDS011;66637;-29.628;-49.938;2023-02-25T16:25:40;3.10;;;1.27;;
77522;SDS011;66637;-29.628;-49.938;2023-02-25T16:31:39;1.70;;;1.35;;
77522;SDS011;66637;-29.628;-49.938;2023-02-25T16:37:47;4.68;;;3.33;;
77522;SDS011;66637;-29.628;-49.938;2023-02-25T16:40:36;14.60;;;8.93;;
77522;SDS011;66637;-29.628;-49.938;2023-02-25T16:43:16;40.53;;;25.30;;
77522;SDS011;66637;-29.628;-49.938;2023-02-25T16:45:58;7.25;;;4.47;;
77522;SDS011;66637;-29.628;-49.938;2023-02-25T16:48:38;3.47;;;1.95;;
77522;SDS011;66637;-29.628;-49.938;2023-02-25T16:51:23;3.67;;;2.90;;
77522;SDS011;66637;-29.628;-49.938;2023-02-25T16:54:05;3.88;;;3.05;;
77522;SDS011;66637;-29.628;-49.938;2023-02-25T16:56:42;4.85;;;2.97;;
77522;SDS011;66637;-29.628;-49.938;2023-02-25T16:59:18;4.43;;;2.25;;
77522;SDS011;66637;-29.628;-49.938;2023-02-25T17:04:31;7.40;;;0.90;;
77522;SDS011;66637;-29.628;-49.938;2023-02-25T17:09:52;0.32;;;0.30;;
77522;SDS011;66637;-29.628;-49.938;2023-02-25T17:12:38;1.13;;;0.30;;
77522;SDS011;66637;-29.628;-49.938;2023-02-25T17:15:14;0.65;;;0.35;;
77522;SDS011;66637;-29.628;-49.938;2023-02-25T17:20:24;0.90;;;0.40;;
77522;SDS011;66637;-29.628;-49.938;2023-02-25T17:23:02;24.50;;;13.27;;
77522;SDS011;66637;-29.628;-49.938;2023-02-25T17:25:54;1.23;;;0.80;;
77522;SDS011;66637;-29.628;-49.938;2023-02-25T17:28:33;0.93;;;0.50;;
77522;SDS011;66637;-29.628;-49.938;2023-02-25T17:31:07;0.47;;;0.20;;
77522;SDS011;66637;-29.628;-49.938;2023-02-25T17:36:23;1.70;;;0.43;;
77522;SDS011;66637;-29.628;-49.938;2023-02-25T17:41:55;0.70;;;0.40;;
77522;SDS011;66637;-29.628;-49.938;2023-02-25T17:47:08;1.35;;;0.30;;
77522;SDS011;66637;-29.628;-49.938;2023-02-25T17:49:40;1.10;;;0.43;;
77522;SDS011;66637;-29.628;-49.938;2023-02-25T17:52:16;0.40;;;0.40;;
77522;SDS011;66637;-29.628;-49.938;2023-02-25T17:55:03;0.68;;;0.50;;
77522;SDS011;66637;-29.628;-49.938;2023-02-25T17:57:40;0.60;;;0.40;;
77522;SDS011;66637;-29.628;-49.938;2023-02-25T18:00:18;0.85;;;0.47;;
77522;SDS011;66637;-29.628;-49.938;2023-02-25T18:03:10;1.88;;;0.50;;
77522;SDS011;66637;-29.628;-49.938;2023-02-25T18:06:02;0.85;;;0.60;;
77522;SDS011;66637;-29.628;-49.938;2023-02-25T18:09:02;59.15;;;7.40;;
77522;SDS011;66637;-29.628;-49.938;2023-02-25T18:11:35;34.38;;;4.65;;
77522;SDS011;66637;-29.628;-49.938;2023-02-25T18:19:59;66.75;;;7.70;;
77522;SDS011;66637;-29.628;-49.938;2023-02-25T18:22:40;9.80;;;1.80;;
77522;SDS011;66637;-29.628;-49.938;2023-02-25T18:25:27;40.45;;;5.20;;
77522;SDS011;66637;-29.628;-49.938;2023-02-25T18:28:12;65.15;;;8.73;;
77522;SDS011;66637;-29.628;-49.938;2023-02-25T18:30:49;26.55;;;4.43;;
77522;SDS011;66637;-29.628;-49.938;2023-02-25T18:33:22;65.45;;;7.70;;
77522;SDS011;66637;-29.628;-49.938;2023-02-25T18:35:56;45.75;;;6.10;;
77522;SDS011;66637;-29.628;-49.938;2023-02-25T18:38:36;46.97;;;6.47;;
77522;SDS011;66637;-29.628;-49.938;2023-02-25T18:41:27;42.28;;;5.55;;
77522;SDS011;66637;-29.628;-49.938;2023-02-25T18:43:58;50.30;;;6.10;;
77522;SDS011;66637;-29.628;-49.938;2023-02-25T18:46:31;81.53;;;8.63;;
77522;SDS011;66637;-29.628;-49.938;2023-02-25T18:49:03;74.38;;;10.13;;
77522;SDS011;66637;-29.628;-49.938;2023-02-25T18:51:34;116.85;;;17.77;;
77522;SDS011;66637;-29.628;-49.938;2023-02-25T18:54:10;53.42;;;7.60;;
77522;SDS011;66637;-29.628;-49.938;2023-02-25T18:56:46;53.42;;;7.03;;
77522;SDS011;66637;-29.628;-49.938;2023-02-25T18:59:21;23.88;;;3.38;;
77522;SDS011;66637;-29.628;-49.938;2023-02-25T19:01:51;30.33;;;5.95;;